createdAt,value
2019-03-19T00:01:03.163Z,101413.09
2019-03-19T00:03:32.683Z,101405.73
2019-03-19T00:06:02.234Z,101415.63
2019-03-19T00:08:31.936Z,101390.61
2019-03-19T00:11:01.505Z,101424.99
2019-03-19T00:13:30.990Z,101421.69
2019-03-19T00:16:01.161Z,101426.30
2019-03-19T00:18:30.707Z,101428.08
2019-03-19T00:21:00.281Z,101289.27
2019-03-19T00:23:30.034Z,101435.03
2019-03-19T00:25:59.594Z,101449.94
2019-03-19T00:28:29.182Z,101447.48
2019-03-19T00:30:58.930Z,101448.31
2019-03-19T00:33:28.639Z,101443.97
2019-03-19T00:36:01.235Z,101445.75
2019-03-19T00:38:30.771Z,101445.75
2019-03-19T00:41:00.264Z,101447.09
2019-03-19T00:43:29.816Z,101448.55
2019-03-19T00:45:59.723Z,101446.80
2019-03-19T00:48:29.479Z,101448.10
2019-03-19T00:50:59.048Z,101456.16
2019-03-19T00:53:28.574Z,101461.81
2019-03-19T00:55:58.147Z,101461.54
2019-03-19T00:58:28.087Z,101466.83
2019-03-19T01:00:57.772Z,101470.27
2019-03-19T01:03:27.914Z,101465.39
2019-03-19T01:05:57.627Z,101474.13
2019-03-19T01:08:30.110Z,101475.91
2019-03-19T01:10:59.793Z,101480.30
2019-03-19T01:13:29.405Z,101487.25
2019-03-19T01:15:59.300Z,101493.51
2019-03-19T01:18:28.914Z,101502.45
2019-03-19T01:20:58.443Z,101499.44
2019-03-19T01:23:28.272Z,101504.64
2019-03-19T01:25:57.990Z,101514.20
2019-03-19T01:28:27.545Z,101483.16
2019-03-19T01:30:57.556Z,101519.56
2019-03-19T01:33:28.170Z,101521.55
2019-03-19T01:35:59.051Z,101522.28
2019-03-19T01:38:28.949Z,101524.03
2019-03-19T01:40:58.502Z,101530.30
2019-03-19T01:43:28.079Z,101534.68
2019-03-19T01:45:57.748Z,101535.28
2019-03-19T01:48:27.453Z,101548.16
2019-03-19T01:50:57.301Z,101544.80
2019-03-19T01:53:27.059Z,101546.50
2019-03-19T01:56:04.834Z,101546.45
2019-03-19T01:58:28.408Z,101554.79
2019-03-19T02:00:58.070Z,101554.91
2019-03-19T02:03:27.795Z,101550.18
2019-03-19T02:05:57.352Z,101555.25
2019-03-19T02:08:27.111Z,101563.30
2019-03-19T02:10:56.926Z,101560.83
2019-03-19T02:13:26.596Z,101572.77
2019-03-19T02:15:56.471Z,101574.30
2019-03-19T02:18:26.021Z,101579.72
2019-03-19T02:20:56.281Z,101586.75
2019-03-19T02:23:26.033Z,101590.47
2019-03-19T02:25:55.590Z,101589.17
2019-03-19T02:28:25.220Z,101595.09
2019-03-19T02:30:54.917Z,101599.58
2019-03-19T02:33:24.433Z,101601.36
2019-03-19T02:35:54.495Z,101605.97
2019-03-19T02:38:24.106Z,101607.86
2019-03-19T02:40:53.719Z,101608.80
2019-03-19T02:43:23.222Z,101609.62
2019-03-19T02:45:52.636Z,101623.27
2019-03-19T02:48:22.227Z,101622.53
2019-03-19T02:50:51.689Z,101632.17
2019-03-19T02:53:21.193Z,101630.42
2019-03-19T02:55:50.801Z,101637.27
2019-03-19T02:58:20.225Z,101638.89
2019-03-19T03:00:50.115Z,101643.46
2019-03-19T03:03:19.649Z,101652.03
2019-03-19T03:05:49.340Z,101661.48
2019-03-19T03:08:19.144Z,101660.00
2019-03-19T03:10:48.746Z,101667.48
2019-03-19T03:13:18.378Z,101667.94
2019-03-19T03:15:47.904Z,101645.84
2019-03-19T03:18:17.399Z,101683.66
2019-03-19T03:20:47.158Z,101683.53
2019-03-19T03:23:16.958Z,101695.49
2019-03-19T03:25:46.602Z,101687.70
2019-03-19T03:28:16.224Z,101692.53
2019-03-19T03:30:45.818Z,101704.72
2019-03-19T03:33:15.340Z,101714.42
2019-03-19T03:35:44.900Z,101719.67
2019-03-19T03:38:14.528Z,101720.48
2019-03-19T03:40:44.015Z,101715.05
2019-03-19T03:43:13.686Z,101716.23
2019-03-19T03:45:43.196Z,101723.35
2019-03-19T03:48:12.679Z,101733.04
2019-03-19T03:50:42.193Z,101737.56
2019-03-19T03:53:11.624Z,101746.17
2019-03-19T03:55:41.359Z,101744.73
2019-03-19T03:58:10.918Z,101749.67
2019-03-19T04:00:40.449Z,101746.17
2019-03-19T04:03:09.988Z,101754.78
2019-03-19T04:05:39.570Z,101755.77
2019-03-19T04:08:09.252Z,101761.91
2019-03-19T04:10:39.080Z,101772.11
2019-03-19T04:13:08.568Z,101764.42
2019-03-19T04:15:38.226Z,101764.37
2019-03-19T04:18:07.775Z,101768.43
2019-03-19T04:20:37.371Z,101763.42
2019-03-19T04:23:06.932Z,101767.19
2019-03-19T04:25:36.480Z,101771.43
2019-03-19T04:28:06.146Z,101781.83
2019-03-19T04:30:35.672Z,101784.88
2019-03-19T04:33:05.505Z,101789.41
2019-03-19T04:35:35.034Z,101790.08
2019-03-19T04:38:04.644Z,101790.78
2019-03-19T04:40:34.212Z,101791.48
2019-03-19T04:43:03.775Z,101801.73
2019-03-19T04:45:33.218Z,101802.44
2019-03-19T04:48:03.674Z,101802.23
2019-03-19T04:50:33.683Z,101818.28
2019-03-19T04:53:03.285Z,101807.69
2019-03-19T04:55:32.704Z,101807.74
2019-03-19T04:58:02.338Z,101814.24
2019-03-19T05:00:31.827Z,101834.08
2019-03-19T05:03:01.447Z,101820.63
2019-03-19T05:05:31.003Z,101827.33
2019-03-19T05:08:00.515Z,101827.33
2019-03-19T05:10:29.969Z,101830.73
2019-03-19T05:13:00.789Z,101833.33
2019-03-19T05:15:30.477Z,101845.62
2019-03-19T05:18:00.313Z,101848.77
2019-03-19T05:20:30.060Z,101849.62
2019-03-19T05:22:59.539Z,101858.97
2019-03-19T05:25:28.970Z,101854.46
2019-03-19T05:27:58.538Z,101859.02
2019-03-19T05:30:28.294Z,101863.66
2019-03-19T05:32:57.986Z,101857.61
2019-03-19T05:35:27.545Z,101863.66
2019-03-19T05:37:57.413Z,101858.27
2019-03-19T05:40:27.203Z,101861.50
2019-03-19T05:42:56.925Z,101864.11
2019-03-19T05:45:27.036Z,101873.80
2019-03-19T05:47:56.892Z,101878.85
2019-03-19T05:50:26.412Z,101880.09
2019-03-19T05:52:56.262Z,101882.29
2019-03-19T05:55:25.890Z,101887.89
2019-03-19T05:57:55.457Z,101895.69
2019-03-19T06:00:27.001Z,101901.84
2019-03-19T06:02:56.903Z,101903.63
2019-03-19T06:05:26.472Z,101903.13
2019-03-19T06:07:56.728Z,101911.08
2019-03-19T06:10:26.400Z,101912.52
2019-03-19T06:12:56.193Z,101912.78
2019-03-19T06:15:26.405Z,101913.62
2019-03-19T06:17:56.263Z,101915.61
2019-03-19T06:20:25.944Z,101924.30
2019-03-19T06:22:55.533Z,101918.73
2019-03-19T06:25:25.225Z,101930.57
2019-03-19T06:28:00.344Z,101928.12
2019-03-19T06:30:26.500Z,101933.86
2019-03-19T06:32:58.631Z,101944.87
2019-03-19T06:35:28.849Z,101942.61
2019-03-19T06:37:58.523Z,101948.56
2019-03-19T06:40:28.437Z,101948.36
2019-03-19T06:42:58.331Z,101950.91
2019-03-19T06:45:29.434Z,101955.00
2019-03-19T06:47:59.081Z,101954.86
2019-03-19T06:50:28.594Z,101955.28
2019-03-19T06:52:58.639Z,101955.74
2019-03-19T06:55:28.379Z,101963.97
2019-03-19T06:57:58.624Z,101972.24
2019-03-19T07:00:28.524Z,101972.59
2019-03-19T07:02:58.263Z,101973.67
2019-03-19T07:05:27.975Z,101969.02
2019-03-19T07:07:57.558Z,101982.85
2019-03-19T07:10:27.401Z,101978.60
2019-03-19T07:12:57.053Z,101980.11
2019-03-19T07:15:26.749Z,101983.95
2019-03-19T07:17:56.349Z,101986.94
2019-03-19T07:20:26.251Z,101990.34
2019-03-19T07:22:55.934Z,101996.78
2019-03-19T07:25:25.566Z,102001.50
2019-03-19T07:27:55.179Z,102003.80
2019-03-19T08:41:01.490Z,102052.83
2019-03-19T08:43:31.211Z,102062.34
2019-03-19T08:46:01.348Z,102067.19
2019-03-19T08:48:31.148Z,102070.28
2019-03-19T08:51:01.103Z,102079.42
2019-03-19T08:53:32.542Z,102088.28
2019-03-19T08:56:03.185Z,102084.62
2019-03-19T08:58:33.396Z,102082.59
2019-03-19T09:01:03.425Z,102095.16
2019-03-19T09:03:34.648Z,102099.92
2019-03-19T09:06:04.653Z,102098.69
2019-03-19T09:08:34.694Z,102088.15
2019-03-19T09:11:08.354Z,102094.78
2019-03-19T09:13:39.030Z,102104.02
2019-03-19T09:16:08.759Z,102105.09
2019-03-19T09:18:38.901Z,102118.37
2019-03-19T09:21:09.453Z,102108.17
2019-03-19T09:23:39.316Z,102114.63
2019-03-19T09:26:09.450Z,102109.85
2019-03-19T09:28:39.377Z,102109.85
2019-03-19T09:31:09.144Z,102106.27
2019-03-19T09:33:39.013Z,102122.12
2019-03-19T09:36:08.600Z,102122.12
2019-03-19T09:38:39.132Z,102121.14
2019-03-19T09:41:09.383Z,102125.92
2019-03-19T09:43:38.963Z,102137.28
2019-03-19T09:46:10.046Z,102133.81
2019-03-19T09:48:40.323Z,102135.08
2019-03-19T09:51:10.547Z,102132.86
2019-03-19T09:53:40.868Z,102127.41
2019-03-19T09:56:11.926Z,102138.73
2019-03-19T09:58:41.799Z,102145.52
2019-03-19T10:01:11.912Z,102142.52
2019-03-19T10:03:42.397Z,102142.52
2019-03-19T10:06:14.416Z,102137.49
2019-03-19T10:08:43.606Z,102149.52
2019-03-19T10:11:13.459Z,102151.22
2019-03-19T10:13:43.318Z,102156.14
2019-03-19T10:16:13.847Z,102161.61
2019-03-19T10:18:44.001Z,102154.59
2019-03-19T10:21:15.013Z,102159.39
2019-03-19T10:47:10.023Z,102187.16
2019-03-19T10:49:39.667Z,102187.16
2019-03-19T10:52:09.897Z,102182.92
2019-03-19T10:54:39.418Z,102173.23
2019-03-19T10:57:09.666Z,102180.77
2019-03-19T10:59:48.859Z,102187.09
2019-03-19T11:02:10.658Z,102174.51
2019-03-19T11:04:40.480Z,102183.92
2019-03-19T11:07:10.875Z,102184.41
2019-03-19T11:09:40.872Z,102184.41
2019-03-19T11:12:10.616Z,102174.72
2019-03-19T11:14:40.317Z,102174.72
2019-03-19T11:17:10.325Z,102170.99
2019-03-19T11:19:40.601Z,102171.86
2019-03-19T11:22:10.696Z,102176.61
2019-03-19T11:24:40.740Z,102182.40
2019-03-19T11:27:10.687Z,102171.66
2019-03-19T11:29:40.154Z,102171.66
2019-03-19T11:32:11.086Z,102161.45
2019-03-19T11:34:40.972Z,102196.45
2019-03-19T11:37:10.917Z,102197.73
2019-03-19T11:39:40.607Z,102197.73
2019-03-19T11:42:10.749Z,102200.28
2019-03-19T11:44:42.842Z,102200.08
2019-03-19T11:47:12.185Z,102213.08
2019-03-19T11:49:42.339Z,102208.88
2019-03-19T11:52:11.982Z,102208.88
2019-03-19T11:54:42.233Z,102207.38
2019-03-19T11:57:11.757Z,102223.06
2019-03-19T11:59:41.599Z,102221.72
2019-03-19T12:02:11.580Z,102206.58
2019-03-19T12:04:41.204Z,102206.58
2019-03-19T12:07:12.113Z,102226.11
2019-03-19T12:09:42.016Z,102227.13
2019-03-19T12:12:11.813Z,102230.95
2019-03-19T12:14:41.527Z,102229.47
2019-03-19T12:17:11.284Z,102239.39
2019-03-19T12:19:40.863Z,102238.25
2019-03-19T12:22:10.680Z,102237.70
2019-03-19T12:24:40.147Z,102240.22
2019-03-19T12:27:10.023Z,102237.70
2019-03-19T12:29:39.697Z,102247.05
2019-03-19T12:32:09.361Z,102244.70
2019-03-19T12:34:38.937Z,102244.25
2019-03-19T12:37:08.873Z,102246.58
2019-03-19T12:39:38.775Z,102244.70
2019-03-19T12:42:08.352Z,102255.69
2019-03-19T12:44:37.949Z,102249.77
2019-03-19T12:47:07.524Z,102249.77
2019-03-19T12:49:37.182Z,102245.73
2019-03-19T12:52:06.801Z,102245.73
2019-03-19T12:54:37.937Z,102253.63
2019-03-19T12:57:10.551Z,102251.98
2019-03-19T12:59:42.595Z,102247.33
2019-03-19T13:02:12.984Z,102251.14
2019-03-19T13:04:42.526Z,102251.14
2019-03-19T13:07:12.578Z,102262.11
2019-03-19T13:09:42.792Z,102257.31
2019-03-19T13:12:12.827Z,102258.02
2019-03-19T13:14:42.817Z,102257.12
2019-03-19T13:17:13.163Z,102261.77
2019-03-19T14:37:48.693Z,102324.80
2019-03-19T14:40:19.306Z,102331.39
2019-03-19T14:42:49.355Z,102332.84
2019-03-19T14:45:22.467Z,102332.84
2019-03-19T14:47:52.115Z,102328.35
2019-03-19T14:50:21.926Z,102331.20
2019-03-19T14:52:51.739Z,102335.83
2019-03-19T14:55:22.158Z,102333.47
2019-03-19T14:57:51.894Z,102328.13
2019-03-19T15:00:22.270Z,102342.17
2019-03-19T15:02:51.882Z,102342.88
2019-03-19T15:05:23.224Z,102346.74
2019-03-19T15:07:52.934Z,102341.39
2019-03-19T15:10:22.611Z,102341.39
2019-03-19T15:12:53.978Z,102349.20
2019-03-19T15:15:23.719Z,102348.30
2019-03-19T15:17:53.735Z,102343.19
2019-03-19T15:20:23.248Z,102338.89
2019-03-19T15:22:53.448Z,102338.89
2019-03-19T15:25:23.229Z,102347.68
2019-03-19T15:27:53.637Z,102345.02
2019-03-19T15:30:23.325Z,102342.56
2019-03-19T15:32:53.043Z,102348.53
2019-03-19T15:35:22.673Z,102341.05
2019-03-19T15:37:54.918Z,102341.05
2019-03-19T15:40:24.601Z,102341.58
2019-03-19T15:42:54.749Z,102336.83
2019-03-19T15:45:24.484Z,102334.34
2019-03-19T15:47:54.131Z,102342.68
2019-03-19T15:50:24.016Z,102352.30
2019-03-19T15:52:53.748Z,102336.28
2019-03-19T15:55:23.397Z,102334.59
2019-03-19T15:57:54.230Z,102327.36
2019-03-19T16:00:24.083Z,102327.36
2019-03-19T16:02:54.659Z,102282.59
2019-03-19T16:05:24.358Z,102330.73
2019-03-19T16:07:53.972Z,102329.97
2019-03-19T16:10:23.932Z,102329.97
2019-03-19T16:12:57.142Z,102315.58
2019-03-19T16:15:26.751Z,102315.58
2019-03-19T16:17:56.272Z,102326.63
2019-03-19T16:20:26.059Z,102318.70
2019-03-19T16:22:55.793Z,102336.28
2019-03-19T16:25:25.714Z,102336.28
2019-03-19T16:27:57.091Z,102333.66
2019-03-19T16:30:27.889Z,102332.28
2019-03-19T16:33:00.103Z,102342.13
2019-03-19T16:35:29.740Z,102342.13
2019-03-19T16:38:00.591Z,102343.69
2019-03-19T16:40:30.148Z,102338.82
2019-03-19T16:43:00.611Z,102338.82
2019-03-19T16:45:30.220Z,102342.26
2019-03-19T16:47:59.930Z,102346.50
2019-03-19T16:50:31.777Z,102346.50
2019-03-19T16:53:01.487Z,102342.83
2019-03-19T16:55:31.160Z,102347.12
2019-03-19T16:58:00.995Z,102348.80
2019-03-19T17:00:32.556Z,102338.86
2019-03-19T17:03:02.262Z,102338.22
2019-03-19T17:05:31.846Z,102351.37
2019-03-19T17:08:01.760Z,102345.69
2019-03-19T17:10:31.422Z,102345.98
2019-03-19T17:13:01.331Z,102351.73
2019-03-19T17:15:31.190Z,102351.73
2019-03-19T17:18:00.806Z,102362.64
2019-03-19T17:20:30.431Z,102362.64
2019-03-19T17:23:00.651Z,102369.50
2019-03-19T17:25:31.601Z,102366.19
2019-03-19T17:28:01.478Z,102366.09
2019-03-19T17:30:31.320Z,102369.51
2019-03-19T17:33:02.490Z,102360.59
2019-03-19T17:35:32.114Z,102360.59
2019-03-19T17:38:02.468Z,102363.20
2019-03-19T17:40:40.976Z,102371.77
2019-03-19T17:43:03.624Z,102371.77
2019-03-19T17:45:33.385Z,102363.75
2019-03-19T17:48:03.050Z,102377.09
2019-03-19T17:50:33.480Z,102383.04
2019-03-19T17:53:05.515Z,102370.59
2019-03-19T17:55:35.284Z,102370.20
2019-03-19T17:58:07.079Z,102379.45
2019-03-19T18:00:39.853Z,102375.00
2019-03-19T18:03:09.671Z,102398.71
2019-03-19T18:05:39.349Z,102398.71
2019-03-19T18:08:11.665Z,102395.33
2019-03-19T18:10:43.912Z,102399.22
2019-03-19T18:13:16.941Z,102399.22
2019-03-19T18:15:46.552Z,102396.48
2019-03-19T18:18:16.674Z,102395.12
2019-03-19T18:20:46.274Z,102399.79
2019-03-19T18:23:17.761Z,102404.73
2019-03-19T18:25:52.369Z,102405.44
2019-03-19T18:28:22.273Z,102407.84
2019-03-19T18:30:53.388Z,102406.10
2019-03-19T18:33:23.569Z,102406.59
2019-03-19T18:35:56.171Z,102406.59
2019-03-19T18:38:24.485Z,102409.56
2019-03-19T18:40:54.127Z,102412.44
2019-03-19T18:43:23.931Z,102417.95
2019-03-19T18:45:53.797Z,102410.58
2019-03-19T18:48:23.776Z,102418.76
2019-03-19T18:50:53.457Z,102407.58
2019-03-19T18:53:23.008Z,102407.58
2019-03-19T18:55:55.872Z,102407.73
2019-03-19T18:58:25.530Z,102409.78
2019-03-19T19:00:55.308Z,102410.19
2019-03-19T19:03:25.011Z,102412.10
2019-03-19T19:05:56.134Z,102414.56
2019-03-19T19:08:26.556Z,102413.26
2019-03-19T19:10:57.429Z,102416.56
2019-03-19T19:13:27.939Z,102418.22
2019-03-19T19:15:57.903Z,102428.09
2019-03-19T19:18:28.106Z,102431.60
2019-03-19T19:20:58.608Z,102424.23
2019-03-19T19:23:29.091Z,102434.77
2019-03-19T19:25:58.844Z,102432.77
2019-03-19T19:28:31.128Z,102432.97
2019-03-19T19:31:01.645Z,102427.25
2019-03-19T19:33:31.492Z,102433.98
2019-03-19T19:36:03.263Z,102440.03
2019-03-19T19:38:33.221Z,102436.13
2019-03-19T19:41:03.278Z,102437.69
2019-03-19T19:43:34.480Z,102435.66
2019-03-19T19:46:08.769Z,102439.83
2019-03-19T19:48:41.891Z,102436.31
2019-03-19T19:51:12.612Z,102437.30
2019-03-19T19:53:43.135Z,102440.87
2019-03-19T19:56:13.285Z,102436.75
2019-03-19T19:58:45.419Z,102438.05
2019-03-19T20:01:16.316Z,102435.09
2019-03-19T20:03:46.962Z,102441.27
2019-03-19T20:06:20.243Z,102441.53
2019-03-19T20:08:50.980Z,102441.33
2019-03-19T20:11:45.017Z,102444.63
2019-03-19T20:14:17.440Z,102445.53
2019-03-19T20:16:59.877Z,102443.63
2019-03-19T20:19:41.171Z,102443.07
2019-03-19T20:22:14.917Z,102455.82
2019-03-19T20:24:44.776Z,102444.78
2019-03-19T20:27:18.413Z,102452.47
2019-03-19T20:29:49.676Z,102456.32
2019-03-19T20:32:23.910Z,102463.16
2019-03-19T20:34:56.027Z,102463.16
2019-03-19T20:37:27.652Z,102458.70
2019-03-19T20:39:59.424Z,102448.27
2019-03-19T20:42:36.990Z,102445.66
2019-03-19T20:45:08.866Z,102442.09
2019-03-19T20:47:40.781Z,102438.12
2019-03-19T20:50:22.500Z,102432.50
2019-03-19T20:52:53.466Z,102429.80
2019-03-19T20:55:23.760Z,102427.84
2019-03-19T20:57:54.837Z,102424.68
2019-03-19T21:00:57.494Z,102422.63
2019-03-19T21:03:35.533Z,102412.50
2019-03-19T21:05:58.960Z,102420.67
2019-03-19T21:08:29.167Z,102410.54
2019-03-19T21:10:58.879Z,102411.30
2019-03-19T21:13:39.030Z,102410.80
2019-03-19T21:16:09.285Z,102410.39
2019-03-19T21:18:39.869Z,102410.05
2019-03-19T21:21:09.768Z,102422.13
2019-03-19T21:23:40.487Z,102419.92
2019-03-19T21:26:13.543Z,102419.92
2019-03-19T21:28:43.493Z,102421.38
2019-03-19T21:31:13.504Z,102419.52
2019-03-19T21:33:51.146Z,102411.90
2019-03-19T21:36:23.056Z,102418.70
2019-03-19T21:38:49.242Z,102417.52
2019-03-19T21:41:22.772Z,102420.77
2019-03-19T21:43:53.461Z,102416.85
2019-03-19T21:46:25.607Z,102408.18
2019-03-19T21:48:55.354Z,102416.15
2019-03-19T21:51:25.453Z,102403.80
2019-03-19T21:53:56.047Z,102407.37
2019-03-19T21:56:25.743Z,102407.08
2019-03-19T21:58:57.784Z,102406.63
2019-03-19T22:01:27.420Z,102400.25
2019-03-19T22:04:03.130Z,102398.29
2019-03-19T22:06:30.442Z,102398.29
2019-03-19T22:09:00.246Z,102397.64
2019-03-19T22:11:30.029Z,102403.72
2019-03-19T22:13:59.895Z,102401.61
2019-03-19T22:16:29.843Z,102399.81
2019-03-19T22:18:59.533Z,102403.32
2019-03-19T22:21:31.390Z,102391.84
2019-03-19T22:24:01.063Z,102386.83
2019-03-19T22:26:30.588Z,102376.61
2019-03-19T22:29:00.155Z,102388.29
2019-03-19T22:31:30.828Z,102387.04
2019-03-19T22:34:01.074Z,102382.81
2019-03-19T22:36:31.027Z,102384.72
2019-03-19T22:39:02.930Z,102382.61
2019-03-19T22:41:32.681Z,102374.08
2019-03-19T22:44:02.541Z,102372.63
2019-03-19T22:46:32.586Z,102362.34
2019-03-19T22:49:04.266Z,102361.53
2019-03-19T22:51:34.336Z,102350.41
2019-03-19T22:54:04.084Z,102359.32
2019-03-19T22:56:35.382Z,102372.30
2019-03-19T22:59:06.360Z,102369.89
2019-03-19T23:01:37.647Z,102364.27
2019-03-19T23:04:09.884Z,102370.35
2019-03-19T23:06:39.526Z,102373.91
2019-03-19T23:09:09.938Z,102374.00
2019-03-19T23:11:39.724Z,102370.14
2019-03-19T23:14:10.077Z,102375.50
2019-03-19T23:16:42.324Z,102382.42
2019-03-19T23:19:12.188Z,102371.32
2019-03-19T23:21:41.818Z,102359.03
2019-03-19T23:24:11.554Z,102357.09
2019-03-19T23:26:41.035Z,102360.34
2019-03-19T23:29:10.982Z,102370.97
2019-03-19T23:31:43.347Z,102366.16
2019-03-19T23:34:14.333Z,102344.19
2019-03-19T23:36:43.971Z,102344.19
2019-03-19T23:39:14.598Z,102347.70
2019-03-19T23:41:44.162Z,102345.50
2019-03-19T23:44:16.182Z,102342.08
2019-03-19T23:46:46.386Z,102340.97
2019-03-19T23:49:15.906Z,102328.81
2019-03-19T23:51:45.472Z,102328.05
2019-03-19T23:54:15.129Z,102330.58
2019-03-19T23:56:45.001Z,102329.91
2019-03-19T23:59:14.791Z,102331.88
